sensor_id;sensor_type;location;lat;lon;timestamp;P1;durP1;ratioP1;P2;durP2;ratioP2
69203;SDS011;56317;27.658;85.326;2022-08-11T00:01:19;21.92;;;10.00;;
69203;SDS011;56317;27.658;85.326;2022-08-11T00:03:58;16.60;;;9.90;;
69203;SDS011;56317;27.658;85.326;2022-08-11T00:06:32;20.45;;;11.27;;
69203;SDS011;56317;27.658;85.326;2022-08-11T00:09:05;25.00;;;10.82;;
69203;SDS011;56317;27.658;85.326;2022-08-11T00:11:38;15.45;;;8.57;;
69203;SDS011;56317;27.658;85.326;2022-08-11T00:16:53;15.48;;;9.77;;
69203;SDS011;56317;27.658;85.326;2022-08-11T00:19:23;17.55;;;10.15;;
69203;SDS011;56317;27.658;85.326;2022-08-11T00:21:52;21.63;;;11.82;;
69203;SDS011;56317;27.658;85.326;2022-08-11T00:24:21;19.27;;;10.85;;
69203;SDS011;56317;27.658;85.326;2022-08-11T00:26:50;16.98;;;9.60;;
69203;SDS011;56317;27.658;85.326;2022-08-11T00:29:19;16.55;;;9.88;;
69203;SDS011;56317;27.658;85.326;2022-08-11T00:31:51;19.02;;;9.48;;
69203;SDS011;56317;27.658;85.326;2022-08-11T00:34:27;18.20;;;9.77;;
69203;SDS011;56317;27.658;85.326;2022-08-11T00:39:23;18.92;;;9.77;;
69203;SDS011;56317;27.658;85.326;2022-08-11T00:44:30;15.88;;;9.90;;
69203;SDS011;56317;27.658;85.326;2022-08-11T00:52:41;15.13;;;9.23;;
69203;SDS011;56317;27.658;85.326;2022-08-11T00:55:43;20.15;;;9.50;;
69203;SDS011;56317;27.658;85.326;2022-08-11T01:01:33;17.17;;;9.88;;
69203;SDS011;56317;27.658;85.326;2022-08-11T01:04:19;23.38;;;10.00;;
69203;SDS011;56317;27.658;85.326;2022-08-11T01:13:32;17.92;;;9.10;;
69203;SDS011;56317;27.658;85.326;2022-08-11T01:46:39;29.27;;;15.20;;
69203;SDS011;56317;27.658;85.326;2022-08-11T01:54:43;21.98;;;12.98;;
69203;SDS011;56317;27.658;85.326;2022-08-11T01:57:41;28.40;;;15.77;;
69203;SDS011;56317;27.658;85.326;2022-08-11T02:00:19;24.08;;;15.60;;
69203;SDS011;56317;27.658;85.326;2022-08-11T02:05:58;24.87;;;15.43;;
69203;SDS011;56317;27.658;85.326;2022-08-11T02:11:39;23.13;;;15.15;;
69203;SDS011;56317;27.658;85.326;2022-08-11T02:25:37;22.83;;;16.08;;
69203;SDS011;56317;27.658;85.326;2022-08-11T02:33:47;29.42;;;17.35;;
69203;SDS011;56317;27.658;85.326;2022-08-11T02:36:36;28.98;;;18.42;;
69203;SDS011;56317;27.658;85.326;2022-08-11T02:39:10;24.52;;;16.75;;
69203;SDS011;56317;27.658;85.326;2022-08-11T02:41:47;25.05;;;15.80;;
69203;SDS011;56317;27.658;85.326;2022-08-11T02:53:35;19.42;;;14.30;;
69203;SDS011;56317;27.658;85.326;2022-08-11T03:14:16;18.60;;;13.45;;
69203;SDS011;56317;27.658;85.326;2022-08-11T03:17:23;17.02;;;10.80;;
69203;SDS011;56317;27.658;85.326;2022-08-11T03:25:45;19.67;;;11.52;;
69203;SDS011;56317;27.658;85.326;2022-08-11T03:31:15;18.58;;;13.73;;
69203;SDS011;56317;27.658;85.326;2022-08-11T03:33:56;18.13;;;12.43;;
69203;SDS011;56317;27.658;85.326;2022-08-11T03:43:43;17.75;;;12.43;;
69203;SDS011;56317;27.658;85.326;2022-08-11T03:55:27;13.48;;;9.40;;
69203;SDS011;56317;27.658;85.326;2022-08-11T04:01:01;13.07;;;9.68;;
69203;SDS011;56317;27.658;85.326;2022-08-11T04:03:43;13.93;;;9.38;;
69203;SDS011;56317;27.658;85.326;2022-08-11T04:23:41;10.95;;;7.45;;
69203;SDS011;56317;27.658;85.326;2022-08-11T04:26:52;10.40;;;6.68;;
69203;SDS011;56317;27.658;85.326;2022-08-11T04:57:30;10.60;;;6.63;;
69203;SDS011;56317;27.658;85.326;2022-08-11T05:00:29;7.93;;;5.18;;
69203;SDS011;56317;27.658;85.326;2022-08-11T05:06:18;9.48;;;6.00;;
69203;SDS011;56317;27.658;85.326;2022-08-11T05:08:53;11.20;;;6.60;;
69203;SDS011;56317;27.658;85.326;2022-08-11T05:21:05;6.63;;;3.97;;
69203;SDS011;56317;27.658;85.326;2022-08-11T05:24:04;9.23;;;4.93;;
69203;SDS011;56317;27.658;85.326;2022-08-11T05:27:00;9.27;;;4.80;;
69203;SDS011;56317;27.658;85.326;2022-08-11T05:30:02;6.05;;;3.85;;
69203;SDS011;56317;27.658;85.326;2022-08-11T05:32:58;8.15;;;4.30;;
69203;SDS011;56317;27.658;85.326;2022-08-11T05:35:48;7.57;;;4.28;;
69203;SDS011;56317;27.658;85.326;2022-08-11T05:38:23;8.63;;;5.10;;
69203;SDS011;56317;27.658;85.326;2022-08-11T05:41:11;6.93;;;3.90;;
69203;SDS011;56317;27.658;85.326;2022-08-11T05:44:01;6.72;;;4.22;;
69203;SDS011;56317;27.658;85.326;2022-08-11T05:46:48;6.13;;;3.92;;
69203;SDS011;56317;27.658;85.326;2022-08-11T05:49:34;9.60;;;4.35;;
69203;SDS011;56317;27.658;85.326;2022-08-11T05:52:22;9.05;;;3.72;;
69203;SDS011;56317;27.658;85.326;2022-08-11T05:55:10;5.00;;;2.70;;
69203;SDS011;56317;27.658;85.326;2022-08-11T05:57:58;5.65;;;2.75;;
69203;SDS011;56317;27.658;85.326;2022-08-11T06:00:30;4.07;;;2.70;;
69203;SDS011;56317;27.658;85.326;2022-08-11T06:03:07;4.97;;;2.70;;
69203;SDS011;56317;27.658;85.326;2022-08-11T06:05:39;6.13;;;2.90;;
69203;SDS011;56317;27.658;85.326;2022-08-11T06:08:09;6.88;;;3.15;;
69203;SDS011;56317;27.658;85.326;2022-08-11T06:10:38;6.95;;;2.40;;
69203;SDS011;56317;27.658;85.326;2022-08-11T06:13:08;4.93;;;2.40;;
69203;SDS011;56317;27.658;85.326;2022-08-11T06:15:46;7.43;;;2.63;;
69203;SDS011;56317;27.658;85.326;2022-08-11T06:18:14;5.65;;;2.17;;
69203;SDS011;56317;27.658;85.326;2022-08-11T06:20:50;5.65;;;2.75;;
69203;SDS011;56317;27.658;85.326;2022-08-11T06:23:19;7.72;;;2.10;;
69203;SDS011;56317;27.658;85.326;2022-08-11T06:25:51;3.17;;;1.80;;
69203;SDS011;56317;27.658;85.326;2022-08-11T06:28:19;5.68;;;1.95;;
69203;SDS011;56317;27.658;85.326;2022-08-11T06:30:58;5.50;;;2.30;;
69203;SDS011;56317;27.658;85.326;2022-08-11T06:33:34;4.63;;;1.80;;
69203;SDS011;56317;27.658;85.326;2022-08-11T06:39:32;4.60;;;2.10;;
69203;SDS011;56317;27.658;85.326;2022-08-11T06:42:09;4.18;;;1.95;;
69203;SDS011;56317;27.658;85.326;2022-08-11T06:45:15;6.03;;;2.20;;
69203;SDS011;56317;27.658;85.326;2022-08-11T06:47:49;5.85;;;2.10;;
69203;SDS011;56317;27.658;85.326;2022-08-11T06:50:20;2.45;;;1.50;;
69203;SDS011;56317;27.658;85.326;2022-08-11T06:53:07;3.33;;;1.77;;
69203;SDS011;56317;27.658;85.326;2022-08-11T06:55:38;7.05;;;2.15;;
69203;SDS011;56317;27.658;85.326;2022-08-11T06:58:31;3.28;;;1.50;;
69203;SDS011;56317;27.658;85.326;2022-08-11T07:01:41;4.10;;;1.70;;
69203;SDS011;56317;27.658;85.326;2022-08-11T07:07:17;5.38;;;1.55;;
69203;SDS011;56317;27.658;85.326;2022-08-11T07:13:28;2.30;;;1.50;;
69203;SDS011;56317;27.658;85.326;2022-08-11T07:16:20;3.25;;;1.55;;
69203;SDS011;56317;27.658;85.326;2022-08-11T07:19:00;5.70;;;2.05;;
69203;SDS011;56317;27.658;85.326;2022-08-11T07:21:48;3.15;;;1.65;;
69203;SDS011;56317;27.658;85.326;2022-08-11T07:24:39;4.60;;;1.80;;
69203;SDS011;56317;27.658;85.326;2022-08-11T07:27:29;5.68;;;1.77;;
69203;SDS011;56317;27.658;85.326;2022-08-11T07:30:20;6.22;;;2.13;;
69203;SDS011;56317;27.658;85.326;2022-08-11T07:32:50;6.97;;;2.20;;
69203;SDS011;56317;27.658;85.326;2022-08-11T07:35:21;6.75;;;2.13;;
69203;SDS011;56317;27.658;85.326;2022-08-11T07:38:03;8.27;;;2.42;;
69203;SDS011;56317;27.658;85.326;2022-08-11T07:40:33;6.78;;;2.17;;
69203;SDS011;56317;27.658;85.326;2022-08-11T07:43:01;4.13;;;2.25;;
69203;SDS011;56317;27.658;85.326;2022-08-11T07:45:31;5.63;;;2.22;;
69203;SDS011;56317;27.658;85.326;2022-08-11T07:48:18;5.35;;;1.77;;
69203;SDS011;56317;27.658;85.326;2022-08-11T07:51:04;3.28;;;1.92;;
69203;SDS011;56317;27.658;85.326;2022-08-11T07:53:49;11.98;;;2.58;;
69203;SDS011;56317;27.658;85.326;2022-08-11T07:56:17;6.68;;;2.10;;
69203;SDS011;56317;27.658;85.326;2022-08-11T07:58:44;4.45;;;1.52;;
69203;SDS011;56317;27.658;85.326;2022-08-11T08:01:31;6.20;;;1.70;;
69203;SDS011;56317;27.658;85.326;2022-08-11T08:04:16;3.92;;;1.55;;
69203;SDS011;56317;27.658;85.326;2022-08-11T08:07:02;4.25;;;1.60;;
69203;SDS011;56317;27.658;85.326;2022-08-11T08:09:49;5.95;;;1.75;;
69203;SDS011;56317;27.658;85.326;2022-08-11T08:12:36;7.35;;;2.20;;
69203;SDS011;56317;27.658;85.326;2022-08-11T08:15:23;5.50;;;1.80;;
69203;SDS011;56317;27.658;85.326;2022-08-11T08:18:09;3.25;;;1.58;;
69203;SDS011;56317;27.658;85.326;2022-08-11T08:20:44;2.90;;;1.40;;
69203;SDS011;56317;27.658;85.326;2022-08-11T08:23:14;4.20;;;1.58;;
69203;SDS011;56317;27.658;85.326;2022-08-11T08:25:57;3.97;;;1.45;;
69203;SDS011;56317;27.658;85.326;2022-08-11T08:28:26;3.33;;;1.45;;
69203;SDS011;56317;27.658;85.326;2022-08-11T08:31:15;6.82;;;3.33;;
69203;SDS011;56317;27.658;85.326;2022-08-11T08:33:41;4.07;;;1.92;;
69203;SDS011;56317;27.658;85.326;2022-08-11T08:36:09;4.25;;;1.60;;
69203;SDS011;56317;27.658;85.326;2022-08-11T08:38:38;5.07;;;1.40;;
69203;SDS011;56317;27.658;85.326;2022-08-11T08:41:06;4.63;;;1.27;;
69203;SDS011;56317;27.658;85.326;2022-08-11T08:43:35;3.80;;;1.35;;
69203;SDS011;56317;27.658;85.326;2022-08-11T08:46:04;3.33;;;1.30;;
69203;SDS011;56317;27.658;85.326;2022-08-11T08:48:35;4.32;;;1.45;;
69203;SDS011;56317;27.658;85.326;2022-08-11T08:51:04;2.65;;;1.25;;
69203;SDS011;56317;27.658;85.326;2022-08-11T08:53:57;2.88;;;1.70;;
69203;SDS011;56317;27.658;85.326;2022-08-11T08:56:33;5.03;;;1.30;;
69203;SDS011;56317;27.658;85.326;2022-08-11T08:59:04;1.90;;;1.17;;
69203;SDS011;56317;27.658;85.326;2022-08-11T09:04:24;7.90;;;1.83;;
69203;SDS011;56317;27.658;85.326;2022-08-11T09:06:55;3.80;;;1.40;;
69203;SDS011;56317;27.658;85.326;2022-08-11T09:09:24;5.15;;;1.50;;
69203;SDS011;56317;27.658;85.326;2022-08-11T09:11:52;4.32;;;1.58;;
69203;SDS011;56317;27.658;85.326;2022-08-11T09:20:04;5.43;;;1.60;;
69203;SDS011;56317;27.658;85.326;2022-08-11T09:22:35;5.63;;;1.73;;
69203;SDS011;56317;27.658;85.326;2022-08-11T09:25:21;4.13;;;1.90;;
69203;SDS011;56317;27.658;85.326;2022-08-11T09:28:10;2.95;;;1.40;;
69203;SDS011;56317;27.658;85.326;2022-08-11T09:30:40;8.30;;;2.57;;
69203;SDS011;56317;27.658;85.326;2022-08-11T09:33:13;3.67;;;1.90;;
69203;SDS011;56317;27.658;85.326;2022-08-11T09:35:42;7.93;;;2.10;;
69203;SDS011;56317;27.658;85.326;2022-08-11T09:38:13;6.22;;;2.55;;
69203;SDS011;56317;27.658;85.326;2022-08-11T09:41:01;3.17;;;2.03;;
69203;SDS011;56317;27.658;85.326;2022-08-11T09:43:32;3.85;;;2.00;;
69203;SDS011;56317;27.658;85.326;2022-08-11T09:46:25;6.85;;;2.55;;
69203;SDS011;56317;27.658;85.326;2022-08-11T09:48:54;3.90;;;2.03;;
69203;SDS011;56317;27.658;85.326;2022-08-11T09:51:25;8.52;;;2.45;;
69203;SDS011;56317;27.658;85.326;2022-08-11T09:54:01;10.65;;;2.50;;
69203;SDS011;56317;27.658;85.326;2022-08-11T09:56:32;5.25;;;2.05;;
69203;SDS011;56317;27.658;85.326;2022-08-11T09:59:19;7.43;;;2.72;;
69203;SDS011;56317;27.658;85.326;2022-08-11T10:01:48;5.75;;;2.50;;
69203;SDS011;56317;27.658;85.326;2022-08-11T10:04:41;5.47;;;2.25;;
69203;SDS011;56317;27.658;85.326;2022-08-11T10:07:09;5.90;;;2.87;;
69203;SDS011;56317;27.658;85.326;2022-08-11T10:10:00;5.60;;;2.03;;
69203;SDS011;56317;27.658;85.326;2022-08-11T10:12:34;7.38;;;2.65;;
69203;SDS011;56317;27.658;85.326;2022-08-11T10:15:09;6.80;;;2.67;;
69203;SDS011;56317;27.658;85.326;2022-08-11T10:18:15;8.07;;;2.97;;
69203;SDS011;56317;27.658;85.326;2022-08-11T10:23:37;7.40;;;2.80;;
69203;SDS011;56317;27.658;85.326;2022-08-11T10:26:23;4.40;;;2.30;;
69203;SDS011;56317;27.658;85.326;2022-08-11T10:29:11;5.80;;;2.47;;
69203;SDS011;56317;27.658;85.326;2022-08-11T10:31:57;5.60;;;2.33;;
69203;SDS011;56317;27.658;85.326;2022-08-11T10:34:46;7.57;;;2.58;;
69203;SDS011;56317;27.658;85.326;2022-08-11T10:37:14;4.55;;;2.70;;
69203;SDS011;56317;27.658;85.326;2022-08-11T10:39:43;13.40;;;2.75;;
69203;SDS011;56317;27.658;85.326;2022-08-11T10:42:11;6.75;;;2.58;;
69203;SDS011;56317;27.658;85.326;2022-08-11T10:44:58;6.05;;;2.40;;
69203;SDS011;56317;27.658;85.326;2022-08-11T10:47:29;10.40;;;2.53;;
69203;SDS011;56317;27.658;85.326;2022-08-11T10:50:06;7.25;;;2.85;;
69203;SDS011;56317;27.658;85.326;2022-08-11T10:52:53;4.13;;;2.00;;
69203;SDS011;56317;27.658;85.326;2022-08-11T10:55:41;4.80;;;1.88;;
69203;SDS011;56317;27.658;85.326;2022-08-11T10:58:29;5.50;;;2.00;;
69203;SDS011;56317;27.658;85.326;2022-08-11T11:01:37;7.68;;;2.22;;
69203;SDS011;56317;27.658;85.326;2022-08-11T11:09:12;9.57;;;2.53;;
69203;SDS011;56317;27.658;85.326;2022-08-11T11:11:44;6.32;;;2.20;;
69203;SDS011;56317;27.658;85.326;2022-08-11T11:14:40;5.15;;;2.33;;
69203;SDS011;56317;27.658;85.326;2022-08-11T11:20:15;4.32;;;2.45;;
69203;SDS011;56317;27.658;85.326;2022-08-11T11:22:50;4.40;;;2.30;;
69203;SDS011;56317;27.658;85.326;2022-08-11T11:28:03;4.45;;;2.20;;
69203;SDS011;56317;27.658;85.326;2022-08-11T11:33:46;6.30;;;2.47;;
69203;SDS011;56317;27.658;85.326;2022-08-11T11:36:47;5.18;;;2.55;;
69203;SDS011;56317;27.658;85.326;2022-08-11T11:39:22;5.68;;;2.85;;
69203;SDS011;56317;27.658;85.326;2022-08-11T11:41:55;8.52;;;3.40;;
69203;SDS011;56317;27.658;85.326;2022-08-11T11:44:28;5.72;;;3.17;;
69203;SDS011;56317;27.658;85.326;2022-08-11T11:46:56;10.52;;;3.80;;
69203;SDS011;56317;27.658;85.326;2022-08-11T11:49:27;10.27;;;4.10;;
69203;SDS011;56317;27.658;85.326;2022-08-11T11:51:57;8.50;;;3.70;;
69203;SDS011;56317;27.658;85.326;2022-08-11T11:54:28;9.20;;;4.97;;
69203;SDS011;56317;27.658;85.326;2022-08-11T11:57:01;6.95;;;3.70;;
69203;SDS011;56317;27.658;85.326;2022-08-11T11:59:47;6.32;;;3.92;;
69203;SDS011;56317;27.658;85.326;2022-08-11T12:02:35;7.55;;;4.03;;
69203;SDS011;56317;27.658;85.326;2022-08-11T12:05:03;10.40;;;4.70;;
69203;SDS011;56317;27.658;85.326;2022-08-11T12:07:32;10.93;;;4.13;;
69203;SDS011;56317;27.658;85.326;2022-08-11T12:10:20;9.20;;;4.72;;
69203;SDS011;56317;27.658;85.326;2022-08-11T12:12:48;12.98;;;5.93;;
69203;SDS011;56317;27.658;85.326;2022-08-11T12:15:34;13.65;;;5.60;;
69203;SDS011;56317;27.658;85.326;2022-08-11T12:18:03;17.65;;;5.68;;
69203;SDS011;56317;27.658;85.326;2022-08-11T12:20:30;15.13;;;5.63;;
69203;SDS011;56317;27.658;85.326;2022-08-11T12:22:58;9.02;;;5.35;;
69203;SDS011;56317;27.658;85.326;2022-08-11T12:25:43;14.50;;;5.75;;
69203;SDS011;56317;27.658;85.326;2022-08-11T12:28:32;16.75;;;8.00;;
69203;SDS011;56317;27.658;85.326;2022-08-11T12:31:00;11.40;;;6.13;;
69203;SDS011;56317;27.658;85.326;2022-08-11T12:33:28;15.07;;;6.00;;
69203;SDS011;56317;27.658;85.326;2022-08-11T12:35:58;11.65;;;5.47;;
69203;SDS011;56317;27.658;85.326;2022-08-11T12:38:26;16.40;;;7.88;;
69203;SDS011;56317;27.658;85.326;2022-08-11T12:40:54;11.65;;;4.90;;
69203;SDS011;56317;27.658;85.326;2022-08-11T12:43:41;13.65;;;6.63;;
69203;SDS011;56317;27.658;85.326;2022-08-11T12:46:35;13.55;;;5.93;;
69203;SDS011;56317;27.658;85.326;2022-08-11T12:49:08;11.13;;;5.75;;
69203;SDS011;56317;27.658;85.326;2022-08-11T12:52:09;10.07;;;5.45;;
69203;SDS011;56317;27.658;85.326;2022-08-11T12:57:12;13.38;;;6.70;;
69203;SDS011;56317;27.658;85.326;2022-08-11T13:00:03;11.18;;;5.97;;
69203;SDS011;56317;27.658;85.326;2022-08-11T13:02:49;15.95;;;6.78;;
69203;SDS011;56317;27.658;85.326;2022-08-11T13:05:35;15.60;;;7.70;;
69203;SDS011;56317;27.658;85.326;2022-08-11T13:08:08;11.75;;;6.32;;
69203;SDS011;56317;27.658;85.326;2022-08-11T13:10:35;16.88;;;8.55;;
69203;SDS011;56317;27.658;85.326;2022-08-11T13:13:21;9.73;;;5.00;;
69203;SDS011;56317;27.658;85.326;2022-08-11T13:15:49;9.50;;;5.30;;
69203;SDS011;56317;27.658;85.326;2022-08-11T13:18:17;10.52;;;6.22;;
69203;SDS011;56317;27.658;85.326;2022-08-11T13:20:52;9.65;;;6.13;;
69203;SDS011;56317;27.658;85.326;2022-08-11T13:23:21;12.05;;;6.57;;
69203;SDS011;56317;27.658;85.326;2022-08-11T13:25:51;17.30;;;8.15;;
69203;SDS011;56317;27.658;85.326;2022-08-11T13:28:23;15.65;;;6.22;;
69203;SDS011;56317;27.658;85.326;2022-08-11T13:30:51;16.75;;;6.97;;
69203;SDS011;56317;27.658;85.326;2022-08-11T13:33:41;14.75;;;7.15;;
69203;SDS011;56317;27.658;85.326;2022-08-11T13:36:11;13.65;;;6.32;;
69203;SDS011;56317;27.658;85.326;2022-08-11T13:38:42;13.57;;;8.32;;
69203;SDS011;56317;27.658;85.326;2022-08-11T13:41:10;14.68;;;7.05;;
69203;SDS011;56317;27.658;85.326;2022-08-11T13:43:56;14.77;;;6.55;;
69203;SDS011;56317;27.658;85.326;2022-08-11T13:46:24;11.77;;;7.18;;
69203;SDS011;56317;27.658;85.326;2022-08-11T13:48:53;13.70;;;7.57;;
69203;SDS011;56317;27.658;85.326;2022-08-11T13:51:22;13.07;;;6.78;;
69203;SDS011;56317;27.658;85.326;2022-08-11T13:56:33;12.65;;;6.85;;
69203;SDS011;56317;27.658;85.326;2022-08-11T13:59:07;19.75;;;7.68;;
69203;SDS011;56317;27.658;85.326;2022-08-11T14:01:38;14.65;;;6.88;;
69203;SDS011;56317;27.658;85.326;2022-08-11T14:04:13;11.20;;;7.15;;
69203;SDS011;56317;27.658;85.326;2022-08-11T14:06:50;13.98;;;6.88;;
69203;SDS011;56317;27.658;85.326;2022-08-11T14:09:23;19.48;;;7.20;;
69203;SDS011;56317;27.658;85.326;2022-08-11T14:11:57;16.83;;;7.38;;
69203;SDS011;56317;27.658;85.326;2022-08-11T14:14:48;15.25;;;6.90;;
69203;SDS011;56317;27.658;85.326;2022-08-11T14:17:38;12.52;;;7.10;;
69203;SDS011;56317;27.658;85.326;2022-08-11T14:20:07;14.43;;;7.40;;
69203;SDS011;56317;27.658;85.326;2022-08-11T14:22:37;13.90;;;8.10;;
69203;SDS011;56317;27.658;85.326;2022-08-11T14:25:08;12.27;;;5.33;;
69203;SDS011;56317;27.658;85.326;2022-08-11T14:27:36;10.63;;;5.10;;
69203;SDS011;56317;27.658;85.326;2022-08-11T14:30:04;12.18;;;6.70;;
69203;SDS011;56317;27.658;85.326;2022-08-11T14:32:51;13.68;;;7.38;;
69203;SDS011;56317;27.658;85.326;2022-08-11T14:35:19;15.38;;;7.13;;
69203;SDS011;56317;27.658;85.326;2022-08-11T14:37:46;14.20;;;6.10;;
69203;SDS011;56317;27.658;85.326;2022-08-11T14:40:14;9.98;;;6.10;;
69203;SDS011;56317;27.658;85.326;2022-08-11T14:43:05;11.15;;;6.47;;
69203;SDS011;56317;27.658;85.326;2022-08-11T14:45:51;14.38;;;7.32;;
69203;SDS011;56317;27.658;85.326;2022-08-11T14:48:38;12.30;;;6.05;;
69203;SDS011;56317;27.658;85.326;2022-08-11T14:51:06;10.63;;;5.20;;
69203;SDS011;56317;27.658;85.326;2022-08-11T14:53:34;10.20;;;5.30;;
69203;SDS011;56317;27.658;85.326;2022-08-11T14:56:01;11.73;;;4.82;;
69203;SDS011;56317;27.658;85.326;2022-08-11T14:58:46;9.77;;;5.85;;
69203;SDS011;56317;27.658;85.326;2022-08-11T15:01:14;10.73;;;5.40;;
69203;SDS011;56317;27.658;85.326;2022-08-11T15:03:59;11.02;;;5.07;;
69203;SDS011;56317;27.658;85.326;2022-08-11T15:06:27;8.02;;;5.13;;
69203;SDS011;56317;27.658;85.326;2022-08-11T15:08:54;11.57;;;5.00;;
69203;SDS011;56317;27.658;85.326;2022-08-11T15:11:22;9.38;;;5.05;;
69203;SDS011;56317;27.658;85.326;2022-08-11T15:14:12;12.90;;;5.18;;
69203;SDS011;56317;27.658;85.326;2022-08-11T15:16:59;9.98;;;5.45;;
69203;SDS011;56317;27.658;85.326;2022-08-11T15:19:40;10.15;;;5.18;;
69203;SDS011;56317;27.658;85.326;2022-08-11T15:22:29;12.73;;;5.40;;
69203;SDS011;56317;27.658;85.326;2022-08-11T15:25:15;14.25;;;5.97;;
69203;SDS011;56317;27.658;85.326;2022-08-11T15:27:45;14.98;;;6.55;;
69203;SDS011;56317;27.658;85.326;2022-08-11T15:30:31;12.80;;;5.43;;
69203;SDS011;56317;27.658;85.326;2022-08-11T15:33:18;8.32;;;4.97;;
69203;SDS011;56317;27.658;85.326;2022-08-11T15:36:06;12.45;;;5.18;;
69203;SDS011;56317;27.658;85.326;2022-08-11T15:38:57;11.90;;;4.95;;
69203;SDS011;56317;27.658;85.326;2022-08-11T15:41:56;7.35;;;4.45;;
69203;SDS011;56317;27.658;85.326;2022-08-11T15:45:02;9.65;;;4.22;;
69203;SDS011;56317;27.658;85.326;2022-08-11T15:47:54;7.95;;;4.35;;
69203;SDS011;56317;27.658;85.326;2022-08-11T15:50:28;8.45;;;4.47;;
69203;SDS011;56317;27.658;85.326;2022-08-11T15:52:59;8.48;;;4.50;;
69203;SDS011;56317;27.658;85.326;2022-08-11T15:55:30;9.48;;;5.47;;
69203;SDS011;56317;27.658;85.326;2022-08-11T15:58:00;13.95;;;4.70;;
69203;SDS011;56317;27.658;85.326;2022-08-11T16:00:50;7.10;;;4.55;;
69203;SDS011;56317;27.658;85.326;2022-08-11T16:03:46;7.68;;;4.45;;
69203;SDS011;56317;27.658;85.326;2022-08-11T16:06:48;6.75;;;4.00;;
69203;SDS011;56317;27.658;85.326;2022-08-11T16:09:42;11.27;;;4.40;;
69203;SDS011;56317;27.658;85.326;2022-08-11T16:12:14;8.30;;;4.50;;
69203;SDS011;56317;27.658;85.326;2022-08-11T16:14:45;7.63;;;4.60;;
69203;SDS011;56317;27.658;85.326;2022-08-11T16:17:39;9.75;;;6.32;;
69203;SDS011;56317;27.658;85.326;2022-08-11T16:20:13;9.20;;;5.70;;
69203;SDS011;56317;27.658;85.326;2022-08-11T16:22:43;9.63;;;4.55;;
69203;SDS011;56317;27.658;85.326;2022-08-11T16:25:13;8.40;;;4.50;;
69203;SDS011;56317;27.658;85.326;2022-08-11T16:27:54;8.05;;;4.07;;
69203;SDS011;56317;27.658;85.326;2022-08-11T16:30:31;8.00;;;4.45;;
69203;SDS011;56317;27.658;85.326;2022-08-11T16:33:00;8.32;;;4.53;;
69203;SDS011;56317;27.658;85.326;2022-08-11T16:35:31;10.27;;;4.47;;
69203;SDS011;56317;27.658;85.326;2022-08-11T16:38:19;6.72;;;3.78;;
69203;SDS011;56317;27.658;85.326;2022-08-11T16:41:08;8.35;;;4.28;;
69203;SDS011;56317;27.658;85.326;2022-08-11T16:43:39;7.20;;;3.67;;
69203;SDS011;56317;27.658;85.326;2022-08-11T16:46:37;5.95;;;3.72;;
69203;SDS011;56317;27.658;85.326;2022-08-11T16:52:00;7.32;;;3.83;;
69203;SDS011;56317;27.658;85.326;2022-08-11T16:54:31;9.02;;;4.10;;
69203;SDS011;56317;27.658;85.326;2022-08-11T16:57:03;12.35;;;5.25;;
69203;SDS011;56317;27.658;85.326;2022-08-11T16:59:54;7.32;;;4.45;;
69203;SDS011;56317;27.658;85.326;2022-08-11T17:02:27;8.43;;;4.20;;
69203;SDS011;56317;27.658;85.326;2022-08-11T17:05:16;11.40;;;4.47;;
69203;SDS011;56317;27.658;85.326;2022-08-11T17:08:06;7.13;;;4.28;;
69203;SDS011;56317;27.658;85.326;2022-08-11T17:10:56;7.45;;;4.10;;
69203;SDS011;56317;27.658;85.326;2022-08-11T17:13:46;9.23;;;4.18;;
69203;SDS011;56317;27.658;85.326;2022-08-11T17:16:15;11.18;;;4.03;;
69203;SDS011;56317;27.658;85.326;2022-08-11T17:18:57;10.13;;;4.32;;
69203;SDS011;56317;27.658;85.326;2022-08-11T17:21:32;8.57;;;4.22;;
69203;SDS011;56317;27.658;85.326;2022-08-11T17:24:26;5.95;;;3.80;;
69203;SDS011;56317;27.658;85.326;2022-08-11T17:26:56;5.75;;;3.60;;
69203;SDS011;56317;27.658;85.326;2022-08-11T17:32:22;6.70;;;4.55;;
69203;SDS011;56317;27.658;85.326;2022-08-11T17:35:13;8.80;;;4.18;;
69203;SDS011;56317;27.658;85.326;2022-08-11T17:40:51;5.22;;;3.50;;
69203;SDS011;56317;27.658;85.326;2022-08-11T17:43:39;8.45;;;4.47;;
69203;SDS011;56317;27.658;85.326;2022-08-11T17:46:26;11.20;;;4.15;;
69203;SDS011;56317;27.658;85.326;2022-08-11T17:49:14;9.15;;;4.03;;
69203;SDS011;56317;27.658;85.326;2022-08-11T17:51:45;7.18;;;4.15;;
69203;SDS011;56317;27.658;85.326;2022-08-11T17:54:32;10.23;;;4.03;;
69203;SDS011;56317;27.658;85.326;2022-08-11T17:57:20;10.55;;;3.95;;
69203;SDS011;56317;27.658;85.326;2022-08-11T18:00:08;16.60;;;5.00;;
69203;SDS011;56317;27.658;85.326;2022-08-11T18:02:37;7.65;;;4.15;;
69203;SDS011;56317;27.658;85.326;2022-08-11T18:05:27;9.60;;;4.22;;
69203;SDS011;56317;27.658;85.326;2022-08-11T18:08:03;8.65;;;4.47;;
69203;SDS011;56317;27.658;85.326;2022-08-11T18:10:50;6.28;;;3.92;;
69203;SDS011;56317;27.658;85.326;2022-08-11T18:13:39;5.82;;;3.83;;
69203;SDS011;56317;27.658;85.326;2022-08-11T18:16:26;6.82;;;4.05;;
69203;SDS011;56317;27.658;85.326;2022-08-11T18:19:12;6.28;;;3.55;;
69203;SDS011;56317;27.658;85.326;2022-08-11T18:22:06;7.20;;;3.83;;
69203;SDS011;56317;27.658;85.326;2022-08-11T18:24:57;7.88;;;4.68;;
69203;SDS011;56317;27.658;85.326;2022-08-11T18:27:47;8.27;;;4.23;;
69203;SDS011;56317;27.658;85.326;2022-08-11T18:30:35;5.93;;;3.80;;
69203;SDS011;56317;27.658;85.326;2022-08-11T18:33:23;7.47;;;4.70;;
69203;SDS011;56317;27.658;85.326;2022-08-11T18:36:12;7.57;;;4.63;;
69203;SDS011;56317;27.658;85.326;2022-08-11T18:39:01;6.22;;;4.10;;
69203;SDS011;56317;27.658;85.326;2022-08-11T18:41:49;11.07;;;4.93;;
69203;SDS011;56317;27.658;85.326;2022-08-11T18:44:36;6.53;;;3.85;;
69203;SDS011;56317;27.658;85.326;2022-08-11T18:47:22;5.70;;;3.92;;
69203;SDS011;56317;27.658;85.326;2022-08-11T18:50:11;5.70;;;3.95;;
69203;SDS011;56317;27.658;85.326;2022-08-11T18:52:58;9.05;;;4.15;;
69203;SDS011;56317;27.658;85.326;2022-08-11T18:55:44;8.25;;;3.53;;
69203;SDS011;56317;27.658;85.326;2022-08-11T18:58:31;7.25;;;3.88;;
69203;SDS011;56317;27.658;85.326;2022-08-11T19:01:18;7.65;;;3.97;;
69203;SDS011;56317;27.658;85.326;2022-08-11T19:04:05;7.22;;;4.07;;
69203;SDS011;56317;27.658;85.326;2022-08-11T19:06:53;9.40;;;3.65;;
69203;SDS011;56317;27.658;85.326;2022-08-11T19:09:41;8.98;;;4.57;;
69203;SDS011;56317;27.658;85.326;2022-08-11T19:12:34;7.20;;;4.13;;
69203;SDS011;56317;27.658;85.326;2022-08-11T19:15:24;7.03;;;4.00;;
69203;SDS011;56317;27.658;85.326;2022-08-11T19:18:11;6.30;;;3.60;;
69203;SDS011;56317;27.658;85.326;2022-08-11T19:21:02;7.78;;;4.10;;
69203;SDS011;56317;27.658;85.326;2022-08-11T19:23:51;6.63;;;3.58;;
69203;SDS011;56317;27.658;85.326;2022-08-11T19:26:37;8.73;;;4.30;;
69203;SDS011;56317;27.658;85.326;2022-08-11T19:29:23;11.48;;;4.22;;
69203;SDS011;56317;27.658;85.326;2022-08-11T19:32:13;5.70;;;3.40;;
69203;SDS011;56317;27.658;85.326;2022-08-11T19:35:01;6.35;;;3.38;;
69203;SDS011;56317;27.658;85.326;2022-08-11T19:37:48;5.57;;;3.72;;
69203;SDS011;56317;27.658;85.326;2022-08-11T19:40:34;5.93;;;3.53;;
69203;SDS011;56317;27.658;85.326;2022-08-11T19:43:22;7.57;;;4.68;;
69203;SDS011;56317;27.658;85.326;2022-08-11T19:46:08;7.20;;;3.72;;